Time;durP1;ratioP1;P1;durP2;ratioP2;P2;SDS_P1;SDS_P2;PMS_P1;PMS_P2;Temp;Humidity;BMP_temperature;BMP_pressure;BME280_temperature;BME280_humidity;BME280_pressure;Samples;Min_cycle;Max_cycle;Signal;HPM_P1;HPM_P2
2023/06/19 00:01:42;;;;;;;8.33;5.00;;;;;;;-145.18;100.00;47146.81;5092063;28;20033;-58
2023/06/19 00:04:09;;;;;;;6.23;4.20;;;;;;;-145.18;100.00;47088.19;5078271;28;20068;-58
2023/06/19 00:06:34;;;;;;;4.53;3.27;;;;;;;-145.18;100.00;46976.84;5076576;28;20020;-58
2023/06/19 00:09:00;;;;;;;4.00;2.37;;;;;;;-145.18;100.00;46847.91;5093162;28;20043;-58
2023/06/19 00:11:25;;;;;;;3.70;2.40;;;;;;;-145.18;100.00;46728.75;5076596;28;20028;-58
2023/06/19 00:13:52;;;;;;;7.87;1.90;;;;;;;-145.18;100.00;46656.50;5078127;28;20479;-58
2023/06/19 00:16:19;;;;;;;2.47;1.73;;;;;;;-145.18;100.00;46574.44;5076441;28;20166;-58
2023/06/19 00:18:44;;;;;;;3.00;1.83;;;;;;;-145.18;100.00;46535.38;5078563;28;20107;-58
2023/06/19 00:21:10;;;;;;;4.70;1.77;;;;;;;-145.18;100.00;46535.38;5076085;28;20115;-58
2023/06/19 00:23:35;;;;;;;3.87;1.87;;;;;;;-145.18;100.00;46533.44;5078277;28;20594;-58
2023/06/19 00:26:01;;;;;;;4.17;1.77;;;;;;;-145.18;100.00;46537.34;5075904;28;20463;-58
2023/06/19 00:28:27;;;;;;;4.57;2.20;;;;;;;-145.18;100.00;46552.97;5060488;28;20047;-58
2023/06/19 00:30:53;;;;;;;6.37;2.03;;;;;;;-145.18;100.00;46582.25;5087086;28;20024;-58
2023/06/19 00:33:18;;;;;;;4.90;1.73;;;;;;;-145.18;100.00;46539.28;5058100;28;20415;-58
2023/06/19 00:35:44;;;;;;;3.30;1.90;;;;;;;-145.18;100.00;46539.28;5076263;28;20032;-58
2023/06/19 00:38:09;;;;;;;2.50;1.50;;;;;;;-145.18;100.00;46535.38;5077639;28;20036;-58
2023/06/19 00:40:35;;;;;;;3.63;1.50;;;;;;;-145.18;100.00;46527.56;5075745;28;20035;-58
2023/06/19 00:43:01;;;;;;;2.77;1.53;;;;;;;-145.18;100.00;46521.72;5076271;28;20025;-58
2023/06/19 00:45:27;;;;;;;3.33;1.70;;;;;;;-145.18;100.00;46521.72;5065186;28;20060;-61
2023/06/19 00:47:57;;;;;;;3.47;1.53;;;;;;;-145.18;100.00;46515.84;5058506;28;20103;-62
2023/06/19 00:50:23;;;;;;;5.17;1.70;;;;;;;-145.18;100.00;46517.81;5062980;28;20024;-61
2023/06/19 00:52:49;;;;;;;3.03;1.63;;;;;;;-145.18;100.00;46523.66;5102218;28;20028;-61
2023/06/19 00:55:15;;;;;;;5.33;1.77;;;;;;;-145.18;100.00;46529.53;5055553;28;20024;-61
2023/06/19 00:57:41;;;;;;;3.57;1.67;;;;;;;-145.18;100.00;46529.53;5074039;28;20028;-61
2023/06/19 01:00:08;;;;;;;3.77;1.70;;;;;;;-145.18;100.00;46539.28;5056398;28;20032;-62
2023/06/19 01:02:34;;;;;;;2.57;1.40;;;;;;;-145.18;100.00;46537.34;5077152;28;20040;-61
2023/06/19 01:04:59;;;;;;;2.77;1.50;;;;;;;-145.18;100.00;46535.38;5077341;28;20040;-61
2023/06/19 01:07:56;;;;;;;2.90;1.73;;;;;;;-145.18;100.00;46539.28;5073319;28;20037;-61
2023/06/19 01:10:24;;;;;;;;;;;;;;;-145.18;100.00;46535.38;5073320;28;20032;-61
2023/06/19 01:12:58;;;;;;;2.17;1.27;;;;;;;-145.18;100.00;46541.25;5078387;28;19947;-61
2023/06/19 01:15:25;;;;;;;3.03;1.90;;;;;;;-145.18;100.00;46547.09;5076936;28;20063;-58
2023/06/19 01:17:52;;;;;;;5.33;2.30;;;;;;;-145.18;100.00;46566.63;5073295;28;20492;-61
2023/06/19 01:20:18;;;;;;;6.00;1.57;;;;;;;-145.18;100.00;46613.50;5081585;28;20082;-62
2023/06/19 01:22:46;;;;;;;3.07;1.87;;;;;;;-145.18;100.00;46631.09;5070989;28;20063;-61
2023/06/19 01:25:13;;;;;;;2.80;1.90;;;;;;;-145.18;100.00;46640.88;5055618;28;20021;-61
2023/06/19 01:27:41;;;;;;;4.17;1.70;;;;;;;-145.18;100.00;46660.41;5073016;28;20056;-61
2023/06/19 01:30:07;;;;;;;3.30;1.90;;;;;;;-145.18;100.00;46660.41;5072954;28;20024;-61
2023/06/19 01:33:08;;;;;;;5.63;1.90;;;;;;;-145.18;100.00;46650.63;5073125;28;20403;-61
2023/06/19 01:35:36;;;;;;;2.93;1.80;;;;;;;-145.18;100.00;46654.53;5039905;28;20063;-62
2023/06/19 01:38:03;;;;;;;3.83;2.10;;;;;;;-145.18;100.00;46666.25;5072566;28;20028;-62
2023/06/19 01:40:31;;;;;;;3.97;2.27;;;;;;;-145.18;100.00;46666.25;5067627;28;20161;-61
2023/06/19 01:43:00;;;;;;;3.00;2.07;;;;;;;-145.18;100.00;46668.22;5080162;28;20085;-61
2023/06/19 01:45:27;;;;;;;2.90;2.27;;;;;;;-145.18;100.00;46677.97;5092418;28;20137;-61
2023/06/19 01:47:53;;;;;;;4.43;2.33;;;;;;;-145.18;100.00;46679.94;5092493;28;20755;-61
2023/06/19 01:50:19;;;;;;;3.73;2.40;;;;;;;-145.18;100.00;46683.84;5084223;28;20032;-61
2023/06/19 01:52:45;;;;;;;3.80;2.00;;;;;;;-145.18;100.00;46681.88;5092576;28;20411;-62
2023/06/19 01:55:10;;;;;;;3.50;2.10;;;;;;;-145.18;100.00;46681.88;5085178;28;20029;-58
2023/06/19 01:57:39;;;;;;;3.37;2.20;;;;;;;-145.18;100.00;46676.03;5073002;28;20102;-58
2023/06/19 02:00:07;;;;;;;4.10;2.30;;;;;;;-145.18;100.00;46679.94;5073020;28;20031;-58
2023/06/19 02:02:32;;;;;;;3.67;2.47;;;;;;;-145.18;100.00;46679.94;5072687;28;20038;-58
2023/06/19 02:04:58;;;;;;;4.07;2.47;;;;;;;-145.18;100.00;46674.06;5070658;28;20218;-58
2023/06/19 02:07:23;;;;;;;5.03;2.93;;;;;;;-145.18;100.00;46676.03;5088487;28;20054;-58
2023/06/19 02:09:49;;;;;;;3.30;2.40;;;;;;;-145.18;100.00;46676.03;5072922;28;20032;-58
2023/06/19 02:12:14;;;;;;;3.73;2.30;;;;;;;-145.18;100.00;46677.97;5073828;28;20042;-58
2023/06/19 02:14:39;;;;;;;3.40;2.70;;;;;;;-145.18;100.00;46679.94;5072126;28;20037;-58
2023/06/19 02:17:05;;;;;;;3.67;2.83;;;;;;;-145.18;100.00;46672.13;5073507;28;20059;-58
2023/06/19 02:19:30;;;;;;;3.80;2.50;;;;;;;-145.18;100.00;46676.03;5088414;28;20484;-58
2023/06/19 02:21:56;;;;;;;4.87;2.90;;;;;;;-145.18;100.00;46677.97;5076338;28;20428;-58
2023/06/19 02:24:21;;;;;;;3.40;2.53;;;;;;;-145.18;100.00;46668.22;5053104;28;20057;-58
2023/06/19 02:26:46;;;;;;;5.67;2.70;;;;;;;-145.18;100.00;46668.22;5051449;28;20095;-58
2023/06/19 02:29:12;;;;;;;5.57;2.83;;;;;;;-145.18;100.00;46664.31;5054035;28;20040;-57
2023/06/19 02:31:37;;;;;;;4.47;2.67;;;;;;;-145.18;100.00;46664.31;5052182;28;20125;-58
2023/06/19 02:34:02;;;;;;;4.83;2.63;;;;;;;-145.18;100.00;46664.31;5050179;28;20033;-58
2023/06/19 02:36:29;;;;;;;4.70;3.13;;;;;;;-145.18;100.00;46658.44;5052393;28;20060;-58
2023/06/19 02:38:55;;;;;;;4.87;3.00;;;;;;;-145.18;100.00;46658.44;5034908;28;20036;-58
2023/06/19 02:41:20;;;;;;;3.60;2.87;;;;;;;-145.18;100.00;46650.63;5052553;28;20029;-58
2023/06/19 02:43:49;;;;;;;8.30;3.00;;;;;;;-145.18;100.00;46652.59;5057512;28;20472;-58
2023/06/19 02:46:15;;;;;;;5.10;3.27;;;;;;;-145.18;100.00;46652.59;5059400;28;20036;-58
2023/06/19 02:48:40;;;;;;;7.03;3.57;;;;;;;-145.18;100.00;46652.59;5064229;28;20492;-58
2023/06/19 02:51:05;;;;;;;6.23;3.30;;;;;;;-145.18;100.00;46654.53;5049759;28;20416;-58
2023/06/19 02:53:31;;;;;;;6.43;3.90;;;;;;;-145.18;100.00;46652.59;5051970;28;20048;-58
2023/06/19 02:55:56;;;;;;;8.60;3.93;;;;;;;-145.18;100.00;46654.53;5050636;28;20033;-58
2023/06/19 02:58:21;;;;;;;5.20;3.57;;;;;;;-145.18;100.00;46650.63;5050815;28;20412;-58
2023/06/19 03:00:47;;;;;;;6.17;4.00;;;;;;;-145.18;100.00;46652.59;5052041;28;20472;-59
2023/06/19 03:03:12;;;;;;;5.57;3.60;;;;;;;-145.18;100.00;46652.59;5053066;28;20025;-59
2023/06/19 03:05:38;;;;;;;6.00;4.40;;;;;;;-145.18;100.00;46648.69;5051375;28;20033;-58
2023/06/19 03:08:04;;;;;;;7.37;4.50;;;;;;;-145.18;100.00;46652.59;5052888;28;20079;-59
2023/06/19 03:10:30;;;;;;;9.40;4.80;;;;;;;-145.18;100.00;46650.63;5052727;28;20061;-58
2023/06/19 03:12:55;;;;;;;6.13;4.40;;;;;;;-145.18;100.00;46650.63;5052847;28;20043;-58
2023/06/19 03:15:21;;;;;;;8.00;4.80;;;;;;;-145.18;100.00;46648.69;5052270;28;20075;-58
2023/06/19 03:17:46;;;;;;;7.87;5.30;;;;;;;-145.18;100.00;46642.81;5053410;28;20029;-59
2023/06/19 03:20:12;;;;;;;8.50;5.53;;;;;;;-145.18;100.00;46644.78;5059262;28;20415;-58
2023/06/19 03:22:41;;;;;;;7.40;5.23;;;;;;;-145.18;100.00;46646.72;5057672;28;20086;-58
2023/06/19 03:25:08;;;;;;;7.47;5.70;;;;;;;-145.18;100.00;46644.78;5088378;28;20115;-59
2023/06/19 03:27:33;;;;;;;11.60;6.53;;;;;;;-145.18;100.00;46679.94;5062394;28;20032;-58
2023/06/19 03:29:59;;;;;;;10.90;7.53;;;;;;;-145.18;100.00;46677.97;5076724;28;20059;-58
2023/06/19 03:32:24;;;;;;;16.30;8.60;;;;;;;-145.18;100.00;46677.97;5082436;28;20038;-59
2023/06/19 03:34:49;;;;;;;14.87;8.10;;;;;;;-145.18;100.00;46660.41;5083231;28;20038;-58
2023/06/19 03:37:15;;;;;;;13.03;9.23;;;;;;;-145.18;100.00;46677.97;5074725;28;20492;-59
2023/06/19 03:39:41;;;;;;;15.70;10.47;;;;;;;-145.18;100.00;46679.94;5075223;28;20029;-59
2023/06/19 03:42:07;;;;;;;14.80;10.00;;;;;;;-145.18;100.00;46660.41;5080569;28;20026;-58
2023/06/19 03:44:32;;;;;;;15.97;10.53;;;;;;;-145.18;100.00;46660.41;5083718;28;20032;-59
2023/06/19 03:46:58;;;;;;;15.40;10.13;;;;;;;-145.18;100.00;46660.41;5074957;28;20104;-58
2023/06/19 03:49:23;;;;;;;16.77;10.23;;;;;;;-145.18;100.00;46660.41;5075187;28;20068;-58
2023/06/19 03:51:48;;;;;;;14.20;9.17;;;;;;;-145.18;100.00;46660.41;5079645;28;20106;-58
2023/06/19 03:54:14;;;;;;;16.03;10.60;;;;;;;-145.18;100.00;46660.41;5095158;28;20036;-58
2023/06/19 03:56:39;;;;;;;16.80;10.27;;;;;;;-145.18;100.00;46660.41;5083847;28;20032;-59
2023/06/19 03:59:05;;;;;;;13.70;8.97;;;;;;;-145.18;100.00;46660.41;5079840;28;20032;-59
2023/06/19 04:01:30;;;;;;;12.97;8.97;;;;;;;-145.18;100.00;46660.41;5078402;28;20060;-58
2023/06/19 04:03:55;;;;;;;13.93;9.03;;;;;;;-145.18;100.00;46660.41;5074820;28;20487;-59
2023/06/19 04:06:21;;;;;;;15.93;10.63;;;;;;;-145.18;100.00;46676.03;5075415;28;20028;-59
2023/06/19 04:08:46;;;;;;;13.93;9.73;;;;;;;-145.18;100.00;46660.41;5057335;28;20040;-58
2023/06/19 04:11:11;;;;;;;13.33;9.60;;;;;;;-145.18;100.00;46660.41;5075205;28;20108;-58
2023/06/19 04:13:37;;;;;;;12.43;9.47;;;;;;;-145.18;100.00;46677.97;5074839;28;20060;-58
2023/06/19 04:16:02;;;;;;;14.10;9.57;;;;;;;-145.18;100.00;46638.91;5078596;28;20103;-58
2023/06/19 04:18:28;;;;;;;10.63;8.37;;;;;;;-145.18;100.00;46660.41;5074182;28;20029;-58
2023/06/19 04:20:53;;;;;;;9.20;6.90;;;;;;;-145.18;100.00;46640.88;5088914;28;20053;-58
2023/06/19 04:23:18;;;;;;;12.70;7.63;;;;;;;-145.18;100.00;46640.88;5074527;28;20029;-58
2023/06/19 04:25:44;;;;;;;14.23;8.50;;;;;;;-145.18;100.00;46677.97;5073580;28;20047;-58
2023/06/19 04:28:09;;;;;;;13.93;8.07;;;;;;;-145.18;100.00;46677.97;5078672;28;20046;-59
2023/06/19 04:30:35;;;;;;;13.47;8.03;;;;;;;-145.18;100.00;46660.41;5076739;28;20431;-58
2023/06/19 04:33:00;;;;;;;12.60;8.17;;;;;;;-145.18;100.00;46640.88;5066114;28;20551;-58
2023/06/19 04:35:26;;;;;;;12.87;7.93;;;;;;;-145.18;100.00;46676.03;5086323;28;20146;-59
2023/06/19 04:37:52;;;;;;;12.77;7.40;;;;;;;-145.18;100.00;46677.97;5075293;28;20048;-59
2023/06/19 04:40:17;;;;;;;10.47;7.07;;;;;;;-145.18;100.00;46640.88;5077917;28;20081;-59
2023/06/19 04:42:43;;;;;;;10.10;6.90;;;;;;;-145.18;100.00;46638.91;5060575;28;20028;-58
2023/06/19 04:45:09;;;;;;;9.57;6.33;;;;;;;-145.18;100.00;46660.41;5076165;28;20029;-58
2023/06/19 04:47:34;;;;;;;10.23;5.97;;;;;;;-145.18;100.00;46638.91;5056982;28;20024;-58
2023/06/19 04:50:00;;;;;;;7.17;4.30;;;;;;;-145.18;100.00;46636.94;5080633;28;20023;-59
2023/06/19 04:52:26;;;;;;;6.60;4.20;;;;;;;-145.18;100.00;46638.91;5074602;28;20032;-58
2023/06/19 04:54:51;;;;;;;6.03;4.00;;;;;;;-145.18;100.00;46636.94;5076672;28;20385;-59
2023/06/19 04:57:17;;;;;;;6.27;3.57;;;;;;;-145.18;100.00;46640.88;5087177;28;20032;-58
2023/06/19 04:59:44;;;;;;;4.87;3.43;;;;;;;-145.18;100.00;46642.81;5093924;28;20089;-59
2023/06/19 05:02:10;;;;;;;5.30;3.30;;;;;;;-145.18;100.00;46640.88;5077483;28;20105;-58
2023/06/19 05:04:35;;;;;;;4.80;2.87;;;;;;;-145.18;100.00;46646.72;5077062;28;20040;-59
2023/06/19 05:07:01;;;;;;;5.13;2.70;;;;;;;-145.18;100.00;46648.69;5080234;28;20388;-58
2023/06/19 05:09:26;;;;;;;5.13;2.40;;;;;;;-145.18;100.00;46650.63;5080986;28;20510;-58
2023/06/19 05:11:52;;;;;;;3.00;2.30;;;;;;;-145.18;100.00;46650.63;5073990;28;20492;-59
2023/06/19 05:14:17;;;;;;;5.10;3.27;;;;;;;-145.18;100.00;46652.59;5074077;28;20420;-58
2023/06/19 05:16:43;;;;;;;5.07;3.47;;;;;;;-145.18;100.00;46660.41;5073433;28;20444;-58
2023/06/19 05:19:09;;;;;;;6.00;3.67;;;;;;;-145.18;100.00;46660.41;5073332;28;20035;-59
2023/06/19 05:21:34;;;;;;;6.93;3.73;;;;;;;-145.18;100.00;46656.50;5091294;28;20459;-58
2023/06/19 05:23:59;;;;;;;8.30;4.20;;;;;;;-145.18;100.00;46668.22;5073496;28;20419;-58
2023/06/19 05:26:26;;;;;;;6.27;4.80;;;;;;;-145.18;100.00;46668.22;5075492;28;20116;-58
2023/06/19 05:28:51;;;;;;;7.33;5.23;;;;;;;-145.18;100.00;46666.25;5072056;28;20056;-58
2023/06/19 05:31:18;;;;;;;7.30;4.93;;;;;;;-145.18;100.00;46668.22;5057411;28;20059;-59
2023/06/19 05:33:43;;;;;;;8.43;5.67;;;;;;;-145.18;100.00;46664.31;5080302;28;21289;-59
2023/06/19 05:36:09;;;;;;;11.17;7.00;;;;;;;-145.18;100.00;46677.97;5080712;28;20052;-58
2023/06/19 05:38:34;;;;;;;8.50;6.70;;;;;;;-145.18;100.00;46676.03;5098461;28;20090;-58
2023/06/19 05:41:00;;;;;;;12.93;7.43;;;;;;;-145.18;100.00;46676.03;5080016;28;20036;-58
2023/06/19 05:43:25;;;;;;;12.90;7.57;;;;;;;-145.18;100.00;46677.97;5098046;28;20085;-58
2023/06/19 05:45:52;;;;;;;11.53;7.73;;;;;;;-145.18;100.00;46674.06;5055603;28;20032;-58
2023/06/19 05:48:18;;;;;;;12.00;8.00;;;;;;;-145.18;100.00;46679.94;5074552;28;20016;-58
2023/06/19 05:50:43;;;;;;;11.57;8.67;;;;;;;-145.18;100.00;46679.94;5075848;28;20514;-58
2023/06/19 05:53:08;;;;;;;11.00;8.73;;;;;;;-145.18;100.00;46674.06;5067523;28;20124;-59
2023/06/19 05:55:34;;;;;;;15.07;9.00;;;;;;;-145.18;100.00;46664.31;5080609;28;20030;-59
2023/06/19 05:57:59;;;;;;;13.47;8.73;;;;;;;-145.18;100.00;46650.63;5076896;28;20044;-59
2023/06/19 06:00:24;;;;;;;11.10;9.10;;;;;;;-145.18;100.00;46636.94;5084511;28;20467;-58
2023/06/19 06:02:51;;;;;;;12.43;9.33;;;;;;;-145.18;100.00;46582.25;5086351;28;20038;-58
2023/06/19 06:05:18;;;;;;;12.50;8.80;;;;;;;-145.18;100.00;46570.53;5057012;28;20062;-58
2023/06/19 06:07:44;;;;;;;12.87;9.70;;;;;;;-145.18;100.00;46570.53;5058937;28;20468;-59
2023/06/19 06:10:10;;;;;;;12.73;10.37;;;;;;;-145.18;100.00;46592.03;5081936;28;20028;-59
2023/06/19 06:12:35;;;;;;;15.70;10.77;;;;;;;-145.18;100.00;46648.69;5076603;28;20036;-58
2023/06/19 06:15:02;;;;;;;17.47;10.93;;;;;;;-145.18;100.00;46635.00;5089825;28;20444;-58
2023/06/19 06:17:29;;;;;;;16.10;11.47;;;;;;;-145.18;100.00;46576.41;5088024;28;20051;-58
2023/06/19 06:19:54;;;;;;;18.57;12.30;;;;;;;-145.18;100.00;46572.50;5060861;28;20040;-58
2023/06/19 06:22:20;;;;;;;17.67;12.73;;;;;;;-145.18;100.00;46572.50;5086412;28;20111;-58
2023/06/19 06:24:46;;;;;;;18.43;12.53;;;;;;;-145.18;100.00;46554.91;5072638;28;20039;-58
2023/06/19 06:27:12;;;;;;;20.33;14.53;;;;;;;-145.18;100.00;46562.72;5089764;28;20020;-58
2023/06/19 06:29:38;;;;;;;19.80;13.83;;;;;;;-145.18;100.00;46564.69;5083893;28;20637;-59
2023/06/19 06:32:05;;;;;;;19.57;14.20;;;;;;;-145.18;100.00;46552.97;5076272;28;20112;-58
2023/06/19 06:34:32;;;;;;;21.33;13.47;;;;;;;-145.18;100.00;46537.34;5084457;28;20028;-58
2023/06/19 06:36:58;;;;;;;19.40;13.33;;;;;;;-145.18;100.00;46527.56;5057202;28;20063;-62
2023/06/19 06:39:23;;;;;;;21.43;14.13;;;;;;;-145.18;100.00;46521.72;5079461;28;20049;-62
2023/06/19 06:41:48;;;;;;;19.70;12.97;;;;;;;-145.18;100.00;46529.53;5077430;28;20557;-62
2023/06/19 06:44:14;;;;;;;19.07;13.93;;;;;;;-145.18;100.00;46535.38;5075132;28;20058;-62
2023/06/19 06:46:39;;;;;;;18.97;13.13;;;;;;;-145.18;100.00;46554.91;5082501;28;20024;-62
2023/06/19 06:49:04;;;;;;;16.13;11.60;;;;;;;-145.18;100.00;46554.91;5076548;28;20462;-62
2023/06/19 06:51:30;;;;;;;20.07;12.33;;;;;;;-145.18;100.00;46549.06;5082204;28;20039;-62
2023/06/19 06:53:55;;;;;;;18.50;12.77;;;;;;;-145.18;100.00;46529.53;5064188;28;20177;-62
2023/06/19 06:56:20;;;;;;;21.17;12.57;;;;;;;-145.18;100.00;46531.47;5083140;28;21278;-62
2023/06/19 06:58:46;;;;;;;16.73;12.23;;;;;;;-145.18;100.00;46531.47;5086959;28;20024;-61
2023/06/19 07:01:12;;;;;;;18.63;12.77;;;;;;;-145.18;100.00;46556.88;5082003;28;20032;-62
2023/06/19 07:03:37;;;;;;;16.77;12.30;;;;;;;-145.18;100.00;46564.69;5083961;28;20490;-63
2023/06/19 07:06:03;;;;;;;17.50;12.83;;;;;;;-145.18;100.00;46566.63;5084870;28;20437;-62
2023/06/19 07:08:28;;;;;;;20.80;13.17;;;;;;;-145.18;100.00;46549.06;5071517;28;20070;-62
2023/06/19 07:10:54;;;;;;;21.30;14.90;;;;;;;-145.18;100.00;46551.00;5084705;28;20024;-62
2023/06/19 07:13:19;;;;;;;21.40;14.00;;;;;;;-145.18;100.00;46586.16;5090807;28;20051;-62
2023/06/19 07:15:44;;;;;;;22.93;16.07;;;;;;;-145.18;100.00;46601.78;5059860;28;20035;-62
2023/06/19 07:18:10;;;;;;;23.17;15.93;;;;;;;-145.18;100.00;46597.88;5090461;28;20065;-62
2023/06/19 07:20:35;;;;;;;20.90;15.10;;;;;;;-145.18;100.00;46633.06;5089217;28;20420;-62
2023/06/19 07:23:01;;;;;;;21.57;15.23;;;;;;;-145.18;100.00;46642.81;5072320;28;20028;-62
2023/06/19 07:25:26;;;;;;;22.03;14.87;;;;;;;-145.18;100.00;46646.72;5054481;28;20028;-62
2023/06/19 07:27:52;;;;;;;21.40;14.23;;;;;;;-145.18;100.00;46638.91;5079943;28;20025;-62
2023/06/19 07:30:17;;;;;;;19.63;13.37;;;;;;;-145.18;100.00;46531.47;5072618;28;20475;-62
2023/06/19 07:32:43;;;;;;;17.73;12.33;;;;;;;-145.18;100.00;46523.66;5071598;28;20081;-62
2023/06/19 07:35:09;;;;;;;18.13;13.67;;;;;;;-145.18;100.00;46521.72;5071814;28;20103;-62
2023/06/19 07:37:34;;;;;;;21.80;14.37;;;;;;;-145.18;100.00;46519.75;5075042;28;20067;-62
2023/06/19 07:39:59;;;;;;;19.67;13.03;;;;;;;-145.18;100.00;46523.66;5083074;28;20054;-62
2023/06/19 07:42:25;;;;;;;17.60;12.33;;;;;;;-145.18;100.00;46521.72;5079406;28;20492;-62
2023/06/19 07:44:51;;;;;;;22.63;13.90;;;;;;;-145.18;100.00;46523.66;5074605;28;20064;-62
2023/06/19 07:47:20;;;;;;;19.20;13.30;;;;;;;-145.18;100.00;46529.53;5079961;28;20058;-62
2023/06/19 07:49:46;;;;;;;19.87;12.30;;;;;;;-145.18;100.00;46527.56;5082366;28;20535;-62
2023/06/19 07:52:11;;;;;;;18.43;12.97;;;;;;;-145.18;100.00;46523.66;5079272;28;20166;-62
2023/06/19 07:54:51;;;;;;;17.90;12.90;;;;;;;-145.18;100.00;46527.56;5077376;28;20040;-62
2023/06/19 07:57:16;;;;;;;21.30;13.43;;;;;;;-145.18;100.00;46529.53;5075042;28;20043;-62
2023/06/19 07:59:41;;;;;;;19.03;12.97;;;;;;;-145.18;100.00;46531.47;5069820;28;20024;-62
2023/06/19 08:02:07;;;;;;;19.87;12.80;;;;;;;-145.18;100.00;46523.66;5082330;28;20035;-62
2023/06/19 08:04:32;;;;;;;20.87;12.80;;;;;;;-145.18;100.00;46529.53;5062740;28;20490;-62
2023/06/19 08:06:57;;;;;;;20.13;12.73;;;;;;;-145.18;100.00;46529.53;5066094;28;20031;-62
2023/06/19 08:09:23;;;;;;;20.00;12.20;;;;;;;-145.18;100.00;46525.63;5065526;28;20158;-62
2023/06/19 08:11:48;;;;;;;18.97;12.37;;;;;;;-145.18;100.00;46527.56;5078536;28;20047;-62
2023/06/19 08:14:13;;;;;;;21.73;12.07;;;;;;;-145.18;100.00;46527.56;5066131;28;20033;-62
2023/06/19 08:16:39;;;;;;;15.17;10.57;;;;;;;-145.18;100.00;46523.66;5084127;28;20111;-62
2023/06/19 08:19:04;;;;;;;18.20;10.63;;;;;;;-145.18;100.00;46523.66;5084002;28;20447;-62
2023/06/19 08:21:29;;;;;;;16.00;10.80;;;;;;;-145.18;100.00;46513.91;5080116;28;20079;-62
2023/06/19 08:23:55;;;;;;;19.43;11.67;;;;;;;-145.18;100.00;46521.72;5088512;28;20488;-62
2023/06/19 08:26:20;;;;;;;20.23;12.63;;;;;;;-145.18;100.00;46513.91;5076382;28;20052;-62
2023/06/19 08:28:46;;;;;;;17.57;12.83;;;;;;;-145.18;100.00;46519.75;5085572;28;20486;-62
2023/06/19 08:31:11;;;;;;;21.57;13.53;;;;;;;-145.18;100.00;46525.63;5079533;28;20051;-62
2023/06/19 08:33:36;;;;;;;18.20;11.83;;;;;;;-145.18;100.00;46517.81;5073932;28;20399;-63
2023/06/19 08:36:02;;;;;;;20.53;12.90;;;;;;;-145.18;100.00;46525.63;5083366;28;20032;-62
2023/06/19 08:38:27;;;;;;;21.40;13.23;;;;;;;-145.18;100.00;46517.81;5077538;28;20032;-62
2023/06/19 08:40:55;;;;;;;21.03;12.47;;;;;;;-145.18;100.00;46523.66;5074610;28;20032;-62
2023/06/19 08:43:21;;;;;;;21.57;13.77;;;;;;;-145.18;100.00;46517.81;5074121;28;20032;-62
2023/06/19 08:46:08;;;;;;;18.90;12.77;;;;;;;-145.18;100.00;46519.75;5076342;28;20044;-62
2023/06/19 08:48:37;;;;;;;19.83;12.70;;;;;;;-145.18;100.00;46504.13;5070773;28;20031;-62
2023/06/19 08:51:04;;;;;;;18.50;12.40;;;;;;;-145.18;100.00;46511.94;5075203;28;20025;-62
2023/06/19 08:53:35;;;;;;;21.03;11.77;;;;;;;-145.18;100.00;46517.81;5075919;28;20039;-62
2023/06/19 08:56:00;;;;;;;21.37;11.63;;;;;;;-145.18;100.00;46531.47;5058151;28;20056;-58
2023/06/19 08:58:26;;;;;;;17.03;11.40;;;;;;;-145.18;100.00;46527.56;5073586;28;20113;-58
2023/06/19 09:00:51;;;;;;;17.33;12.40;;;;;;;-145.18;100.00;46551.00;5054925;28;20033;-58
2023/06/19 09:03:23;;;;;;;16.40;11.80;;;;;;;-145.18;100.00;46519.75;5074184;28;20085;-59
2023/06/19 09:05:50;;;;;;;16.40;10.57;;;;;;;-145.18;100.00;46523.66;5074395;28;20114;-58
2023/06/19 09:08:16;;;;;;;13.33;9.53;;;;;;;-145.18;100.00;46515.84;5073901;28;20024;-59
2023/06/19 09:10:42;;;;;;;16.87;11.07;;;;;;;-145.18;100.00;46519.75;5084078;28;20049;-59
2023/06/19 09:13:08;;;;;;;17.70;10.67;;;;;;;-145.18;100.00;46515.84;5077283;28;20020;-59
2023/06/19 09:15:37;;;;;;;21.00;11.73;;;;;;;-145.18;100.00;46508.03;5080518;28;20024;-58
2023/06/19 09:18:11;;;;;;;16.73;12.50;;;;;;;-145.18;100.00;46504.13;5077481;28;20380;-58
2023/06/19 09:20:44;;;;;;;17.53;10.97;;;;;;;-145.18;100.00;46492.41;5077070;28;20552;-58
2023/06/19 09:23:13;;;;;;;15.27;10.37;;;;;;;-145.18;100.00;46529.53;5077046;28;20054;-58
2023/06/19 09:25:46;;;;;;;15.20;10.10;;;;;;;-145.18;100.00;46685.78;5069159;28;20047;-59
2023/06/19 09:28:23;;;;;;;14.93;9.23;;;;;;;-145.18;100.00;46887.00;5090758;28;20020;-58
2023/06/19 09:30:59;;;;;;;15.13;10.20;;;;;;;-145.18;100.00;46865.50;5073560;28;20039;-58
2023/06/19 09:33:30;;;;;;;18.17;10.60;;;;;;;-145.18;100.00;47035.44;5083421;28;20479;-59
2023/06/19 09:35:57;;;;;;;16.30;10.00;;;;;;;-145.18;100.00;47125.31;5076355;28;20036;-58
2023/06/19 09:38:30;;;;;;;17.03;11.33;;;;;;;-145.18;100.00;47123.38;5079052;28;20042;-58
2023/06/19 09:40:59;;;;;;;17.13;10.67;;;;;;;-145.18;100.00;47055.00;5082148;28;20036;-58
2023/06/19 09:43:30;;;;;;;14.77;10.27;;;;;;;-145.18;100.00;47113.59;5077057;28;20032;-58
2023/06/19 09:45:57;;;;;;;15.03;10.30;;;;;;;-145.18;100.00;47070.63;5083421;28;20020;-58
2023/06/19 09:48:29;;;;;;;20.77;11.63;;;;;;;-145.18;100.00;47074.53;5076698;28;20012;-58
2023/06/19 09:51:00;;;;;;;17.50;10.87;;;;;;;-145.18;100.00;47105.78;5080211;28;20472;-59
2023/06/19 09:53:26;;;;;;;16.67;10.50;;;;;;;-145.18;100.00;47105.78;5065992;28;20032;-59
2023/06/19 09:55:52;;;;;;;15.27;11.20;;;;;;;-145.18;100.00;47076.47;5064342;28;20026;-58
2023/06/19 09:58:21;;;;;;;19.57;12.30;;;;;;;-145.18;100.00;47021.78;5085759;28;20039;-59
2023/06/19 10:00:50;;;;;;;14.43;10.20;;;;;;;-145.18;100.00;46998.34;5091188;28;20439;-59
2023/06/19 10:03:16;;;;;;;16.63;11.07;;;;;;;-145.18;100.00;47041.31;5089393;28;20023;-59
2023/06/19 10:05:42;;;;;;;18.63;12.23;;;;;;;-145.18;100.00;47135.09;5091394;28;20020;-59
2023/06/19 10:08:08;;;;;;;14.87;10.90;;;;;;;-145.18;100.00;47105.78;5074841;28;20386;-63
2023/06/19 10:10:34;;;;;;;17.27;11.40;;;;;;;-145.18;100.00;47131.19;5066011;28;20036;-62
2023/06/19 10:13:12;;;;;;;14.73;10.27;;;;;;;-145.18;100.00;47101.88;5071609;28;20078;-62
2023/06/19 10:15:42;;;;;;;14.47;11.13;;;;;;;-145.18;100.00;47039.34;5089449;28;20020;-63
2023/06/19 10:18:16;;;;;;;17.97;12.23;;;;;;;-145.18;100.00;47010.06;5061311;28;20115;-62
2023/06/19 10:20:42;;;;;;;18.33;11.40;;;;;;;-145.18;100.00;47000.28;5077248;28;20051;-63
2023/06/19 10:23:18;;;;;;;17.73;11.20;;;;;;;-145.18;100.00;46986.63;5090856;28;20115;-63
2023/06/19 10:25:46;;;;;;;18.90;11.03;;;;;;;-145.18;100.00;46986.63;5088344;28;20454;-63
2023/06/19 10:28:23;;;;;;;16.87;10.87;;;;;;;-145.18;100.00;46980.75;5083194;28;20372;-63
2023/06/19 10:31:01;;;;;;;15.13;9.67;;;;;;;-145.18;100.00;47004.19;5073014;28;20036;-62
2023/06/19 10:33:32;;;;;;;12.63;9.57;;;;;;;-145.18;100.00;47021.78;5080318;28;20042;-62
2023/06/19 10:36:02;;;;;;;16.03;10.23;;;;;;;-145.18;100.00;47039.34;5063811;28;20032;-63
2023/06/19 10:38:28;;;;;;;17.50;10.90;;;;;;;-145.18;100.00;47033.50;5063585;28;20036;-62
2023/06/19 10:40:53;;;;;;;17.10;10.87;;;;;;;-145.18;100.00;47045.22;5057108;28;20028;-63
2023/06/19 10:43:24;;;;;;;15.30;10.50;;;;;;;-145.18;100.00;47000.28;5050841;28;20075;-63
2023/06/19 10:45:51;;;;;;;19.10;12.00;;;;;;;-145.18;100.00;47000.28;5059687;28;20499;-62
2023/06/19 10:48:24;;;;;;;17.33;11.43;;;;;;;-145.18;100.00;47027.63;5055473;28;20083;-62
2023/06/19 10:50:51;;;;;;;17.80;11.43;;;;;;;-145.18;100.00;47062.81;5062103;28;20032;-62
2023/06/19 10:53:32;;;;;;;18.07;11.90;;;;;;;-145.18;100.00;47103.81;5071621;28;20565;-62
2023/06/19 10:56:00;;;;;;;14.60;10.47;;;;;;;-145.18;100.00;46992.47;5071698;28;20103;-63
2023/06/19 10:58:26;;;;;;;17.53;11.90;;;;;;;-145.18;100.00;47068.66;5075693;28;20099;-63
2023/06/19 11:00:52;;;;;;;15.90;11.60;;;;;;;-145.18;100.00;46922.16;5091061;28;20507;-63